createdAt,value
2018-12-17T00:00:34.155Z,14.23
2018-12-17T00:03:05.116Z,16.67
2018-12-17T00:05:41.775Z,13.15
2018-12-17T00:08:08.473Z,13.90
2018-12-17T00:10:37.217Z,14.80
2018-12-17T00:13:05.918Z,13.48
2018-12-17T00:15:36.367Z,13.70
2018-12-17T00:18:05.169Z,14.90
2018-12-17T00:20:34.099Z,17.37
2018-12-17T00:23:02.913Z,15.17
2018-12-17T00:25:33.590Z,17.10
2018-12-17T00:28:08.131Z,13.75
2018-12-17T00:30:33.553Z,12.00
2018-12-17T00:33:05.872Z,13.90
2018-12-17T00:35:34.570Z,13.25
2018-12-17T00:38:03.767Z,15.20
2018-12-17T00:40:32.569Z,12.00
2018-12-17T00:43:02.943Z,14.00
2018-12-17T00:45:32.705Z,13.58
2018-12-17T00:48:02.082Z,13.97
2018-12-17T00:50:30.986Z,15.53
2018-12-17T00:52:59.762Z,13.93
2018-12-17T00:55:29.102Z,13.62
2018-12-17T00:57:57.797Z,14.23
2018-12-17T01:00:26.571Z,14.80
2018-12-17T01:02:55.419Z,16.93
2018-12-17T01:05:24.232Z,13.83
2018-12-17T01:07:53.070Z,12.60
2018-12-17T01:10:21.884Z,14.63
2018-12-17T01:12:50.630Z,14.80
2018-12-17T01:15:19.710Z,13.33
2018-12-17T01:17:48.541Z,14.85
2018-12-17T01:20:17.289Z,13.98
2018-12-17T01:22:46.071Z,14.77
2018-12-17T01:25:14.791Z,17.15
2018-12-17T01:27:43.830Z,12.20
2018-12-17T01:30:12.613Z,15.72
2018-12-17T01:32:41.690Z,15.40
2018-12-17T01:35:10.398Z,13.60
2018-12-17T01:37:39.193Z,15.00
2018-12-17T01:42:47.002Z,15.10
2018-12-17T01:45:15.682Z,13.67
2018-12-17T01:50:23.507Z,12.77
2018-12-17T01:52:52.187Z,14.03
2018-12-17T01:55:21.347Z,14.80
2018-12-17T01:57:50.071Z,13.75
2018-12-17T02:00:19.024Z,16.15
2018-12-17T02:02:47.747Z,12.43
2018-12-17T02:05:16.513Z,14.13
2018-12-17T02:07:45.185Z,15.40
2018-12-17T02:10:13.973Z,13.53
2018-12-17T02:12:42.992Z,13.60
2018-12-17T02:15:11.791Z,15.40
2018-12-17T02:17:40.586Z,14.00
2018-12-17T02:22:52.694Z,16.87
2018-12-17T02:25:21.468Z,13.70
2018-12-17T02:27:50.142Z,13.10
2018-12-17T02:30:18.969Z,14.93
2018-12-17T02:32:47.905Z,15.03
2018-12-17T02:35:16.642Z,14.23
2018-12-17T02:37:45.342Z,12.47
2018-12-17T02:40:14.158Z,15.20
2018-12-17T02:42:42.947Z,14.10
2018-12-17T02:45:11.789Z,15.08
2018-12-17T02:47:40.501Z,14.18
2018-12-17T02:50:09.337Z,14.85
2018-12-17T02:52:38.132Z,16.90
2018-12-17T02:55:06.970Z,16.75
2018-12-17T02:57:35.677Z,16.42
2018-12-17T03:00:11.098Z,13.40
2018-12-17T03:02:41.839Z,13.80
2018-12-17T03:05:10.634Z,12.85
2018-12-17T03:07:39.430Z,12.00
2018-12-17T03:12:49.807Z,15.37
2018-12-17T03:15:23.905Z,15.23
2018-12-17T03:18:02.699Z,13.93
2018-12-17T03:20:35.004Z,15.53
2018-12-17T03:23:12.301Z,14.13
2018-12-17T03:25:44.647Z,14.38
2018-12-17T03:28:22.021Z,15.93
2018-12-17T03:30:58.627Z,15.95
2018-12-17T03:33:41.728Z,14.75
2018-12-17T03:39:06.561Z,14.03
2018-12-17T03:41:36.837Z,15.87
2018-12-17T03:44:05.656Z,16.73
2018-12-17T03:46:34.401Z,13.20
2018-12-17T03:49:03.706Z,14.07
2018-12-17T03:54:12.335Z,14.27
2018-12-17T03:59:21.031Z,12.00
2018-12-17T04:01:49.782Z,12.78
2018-12-17T04:04:18.534Z,13.50
2018-12-17T04:06:47.275Z,13.67
2018-12-17T04:09:16.019Z,12.03
2018-12-17T04:11:44.793Z,12.40
2018-12-17T04:14:13.561Z,10.73
2018-12-17T04:16:42.347Z,12.30
2018-12-17T04:19:11.110Z,12.23
2018-12-17T04:21:39.802Z,11.80
2018-12-17T04:26:48.443Z,11.33
2018-12-17T04:31:59.701Z,11.00
2018-12-17T04:34:28.495Z,10.47
2018-12-17T04:36:57.266Z,11.30
2018-12-17T04:39:26.324Z,12.18
2018-12-17T04:41:55.160Z,10.63
2018-12-17T04:44:23.932Z,12.93
2018-12-17T04:46:52.742Z,10.57
2018-12-17T04:49:21.465Z,10.30
2018-12-17T04:51:50.432Z,11.50
2018-12-17T04:54:19.116Z,10.97
2018-12-17T04:56:47.987Z,9.90
2018-12-17T04:59:16.725Z,10.07
2018-12-17T05:01:45.505Z,9.63
2018-12-17T05:04:14.456Z,10.37
2018-12-17T05:06:43.262Z,12.20
2018-12-17T05:09:12.026Z,10.83
2018-12-17T05:11:40.826Z,11.90
2018-12-17T05:14:09.556Z,10.48
2018-12-17T05:16:38.416Z,11.50
2018-12-17T05:19:07.247Z,10.43
2018-12-17T05:21:37.041Z,10.95
2018-12-17T05:24:05.851Z,10.03
2018-12-17T05:26:34.761Z,12.30
2018-12-17T05:29:03.889Z,11.20
2018-12-17T05:31:32.723Z,11.27
2018-12-17T05:34:01.982Z,10.20
2018-12-17T05:36:30.830Z,9.97
2018-12-17T05:41:39.355Z,13.03
2018-12-17T05:44:08.040Z,10.90
2018-12-17T05:46:37.857Z,11.20
2018-12-17T05:49:06.604Z,9.87
2018-12-17T05:51:35.463Z,9.80
2018-12-17T05:54:04.225Z,12.05
2018-12-17T05:56:32.999Z,9.70
2018-12-17T05:59:01.703Z,10.18
2018-12-17T06:04:05.735Z,9.17
2018-12-17T06:06:34.410Z,10.33
2018-12-17T06:09:07.463Z,11.30
2018-12-17T06:11:37.505Z,13.13
2018-12-17T06:14:07.400Z,11.57
2018-12-17T06:16:36.235Z,10.78
2018-12-17T06:19:05.028Z,9.55
2018-12-17T06:21:33.801Z,9.15
2018-12-17T06:26:46.898Z,11.30
2018-12-17T06:29:15.685Z,10.47
2018-12-17T06:31:44.450Z,10.25
2018-12-17T06:34:13.257Z,10.70
2018-12-17T06:36:42.010Z,11.37
2018-12-17T06:39:10.761Z,12.00
2018-12-17T06:41:39.488Z,10.17
2018-12-17T06:44:08.201Z,10.45
2018-12-17T06:46:36.953Z,11.65
2018-12-17T06:49:05.635Z,10.67
2018-12-17T06:51:34.635Z,10.72
2018-12-17T06:54:03.764Z,11.90
2018-12-17T06:56:32.834Z,13.20
2018-12-17T06:59:01.653Z,11.83
2018-12-17T07:01:30.326Z,10.47
2018-12-17T07:03:59.076Z,8.05
2018-12-17T07:09:07.909Z,12.00
2018-12-17T07:11:37.629Z,12.30
2018-12-17T07:14:06.378Z,9.43
2018-12-17T07:16:35.130Z,12.70
2018-12-17T07:19:04.215Z,10.30
2018-12-17T07:21:33.546Z,12.03
2018-12-17T07:26:42.708Z,10.30
2018-12-17T07:29:11.431Z,11.28
2018-12-17T07:31:40.218Z,10.20
2018-12-17T07:34:08.980Z,9.80
2018-12-17T07:36:37.734Z,10.90
2018-12-17T07:39:08.185Z,12.57
2018-12-17T07:41:37.458Z,11.27
2018-12-17T07:44:06.150Z,12.77
2018-12-17T07:46:35.095Z,10.80
2018-12-17T07:49:04.182Z,10.93
2018-12-17T07:51:32.977Z,11.50
2018-12-17T07:54:02.168Z,10.10
2018-12-17T07:56:31.810Z,10.77
2018-12-17T07:59:00.765Z,10.57
2018-12-17T08:01:29.722Z,12.15
2018-12-17T08:03:58.456Z,11.97
2018-12-17T08:06:27.177Z,10.53
2018-12-17T08:08:55.936Z,10.73
2018-12-17T08:11:24.701Z,10.50
2018-12-17T08:13:54.194Z,11.03
2018-12-17T08:16:23.010Z,11.20
2018-12-17T08:18:51.966Z,11.00
2018-12-17T08:21:20.870Z,10.55
2018-12-17T08:23:49.643Z,12.20
2018-12-17T08:26:18.355Z,10.40
2018-12-17T08:28:47.447Z,10.85
2018-12-17T08:31:16.113Z,11.05
2018-12-17T08:33:44.930Z,10.90
2018-12-17T08:36:13.742Z,10.07
2018-12-17T08:38:42.707Z,9.77
2018-12-17T08:41:11.498Z,13.43
2018-12-17T08:43:40.298Z,10.40
2018-12-17T08:46:09.054Z,9.63
2018-12-17T08:48:37.912Z,9.67
2018-12-17T08:51:06.741Z,12.47
2018-12-17T08:53:36.630Z,9.95
2018-12-17T08:58:48.801Z,10.37
2018-12-17T09:01:17.662Z,10.85
2018-12-17T09:03:46.431Z,10.77
2018-12-17T09:06:15.155Z,9.97
2018-12-17T09:08:43.963Z,9.38
2018-12-17T09:11:12.883Z,9.90
2018-12-17T09:13:41.735Z,11.00
2018-12-17T09:16:10.480Z,10.10
2018-12-17T09:18:39.185Z,9.20
2018-12-17T09:21:07.939Z,9.17
2018-12-17T09:23:36.761Z,9.05
2018-12-17T09:26:05.475Z,10.37
2018-12-17T09:28:34.150Z,9.10
2018-12-17T09:31:03.685Z,9.48
2018-12-17T09:33:32.453Z,8.90
2018-12-17T09:36:02.027Z,9.73
2018-12-17T09:38:30.773Z,9.48
2018-12-17T09:40:59.545Z,10.08
2018-12-17T09:43:28.366Z,9.90
2018-12-17T09:45:57.113Z,9.93
2018-12-17T09:48:25.955Z,10.18
2018-12-17T09:50:54.742Z,8.77
2018-12-17T09:53:23.459Z,9.60
2018-12-17T09:55:52.248Z,9.40
2018-12-17T09:58:20.978Z,10.50
2018-12-17T10:00:49.930Z,8.33
2018-12-17T10:03:18.675Z,9.00
2018-12-17T10:05:47.426Z,9.35
2018-12-17T10:08:16.210Z,8.50
2018-12-17T10:10:44.904Z,10.30
2018-12-17T10:13:13.587Z,10.03
2018-12-17T10:15:42.406Z,9.67
2018-12-17T10:18:11.121Z,9.10
2018-12-17T10:20:39.909Z,7.87
2018-12-17T10:23:08.703Z,7.83
2018-12-17T10:25:37.405Z,8.15
2018-12-17T10:28:06.141Z,9.30
2018-12-17T10:30:34.850Z,8.18
2018-12-17T10:33:04.327Z,7.97
2018-12-17T10:35:33.062Z,7.00
2018-12-17T10:38:02.130Z,8.23
2018-12-17T10:40:32.806Z,7.37
2018-12-17T10:43:01.628Z,6.50
2018-12-17T10:45:30.313Z,6.63
2018-12-17T10:48:00.142Z,5.70
2018-12-17T10:50:30.253Z,7.53
2018-12-17T10:52:58.998Z,7.93
2018-12-17T10:55:27.730Z,6.10
2018-12-17T10:57:56.500Z,8.10
2018-12-17T11:00:30.604Z,5.63
2018-12-17T11:03:04.242Z,6.75
2018-12-17T11:05:33.974Z,6.20
2018-12-17T11:08:02.855Z,6.67
2018-12-17T11:10:31.726Z,5.67
2018-12-17T11:13:00.522Z,5.47
2018-12-17T11:15:29.830Z,5.43
2018-12-17T11:17:58.554Z,5.60
2018-12-17T11:20:27.446Z,6.30
2018-12-17T11:22:56.271Z,5.47
2018-12-17T11:25:25.014Z,6.37
2018-12-17T11:27:54.150Z,5.28
2018-12-17T11:30:23.218Z,5.23
2018-12-17T11:32:51.963Z,6.23
2018-12-17T11:35:20.698Z,6.43
2018-12-17T11:37:49.465Z,5.17
2018-12-17T11:40:18.184Z,5.53
2018-12-17T11:42:46.918Z,5.20
2018-12-17T11:45:15.882Z,5.70
2018-12-17T11:47:44.579Z,5.60
2018-12-17T11:50:13.332Z,5.23
2018-12-17T11:52:42.093Z,5.60
2018-12-17T11:55:10.854Z,5.30
2018-12-17T11:57:50.922Z,5.30
2018-12-17T12:00:22.619Z,7.20
2018-12-17T12:02:51.382Z,5.63
2018-12-17T12:05:20.092Z,5.40
2018-12-17T12:07:49.090Z,5.20
2018-12-17T12:10:17.774Z,5.90
2018-12-17T12:12:46.505Z,5.97
2018-12-17T12:15:15.269Z,5.70
2018-12-17T12:17:44.367Z,5.17
2018-12-17T12:20:13.082Z,5.58
2018-12-17T12:22:42.706Z,5.23
2018-12-17T12:25:11.552Z,6.12
2018-12-17T12:27:40.449Z,5.08
2018-12-17T12:30:09.808Z,5.63
2018-12-17T12:32:38.603Z,4.58
2018-12-17T12:35:08.529Z,5.50
2018-12-17T12:37:37.942Z,5.87
2018-12-17T12:40:07.322Z,5.03
2018-12-17T12:42:36.077Z,5.30
2018-12-17T12:45:05.403Z,3.98
2018-12-17T12:47:34.079Z,5.90
2018-12-17T12:50:04.000Z,5.27
2018-12-17T12:52:35.236Z,5.10
2018-12-17T12:55:07.159Z,4.53
2018-12-17T12:57:36.039Z,4.83
2018-12-17T13:00:09.501Z,4.77
2018-12-17T13:02:39.802Z,4.30
2018-12-17T13:05:08.610Z,5.47
2018-12-17T13:07:37.415Z,4.33
2018-12-17T13:10:09.612Z,4.70
2018-12-17T13:12:38.340Z,5.03
2018-12-17T13:15:08.901Z,5.17
2018-12-17T13:17:37.836Z,5.27
2018-12-17T13:20:08.117Z,6.20
2018-12-17T13:22:37.986Z,4.60
2018-12-17T13:25:10.933Z,5.10
2018-12-17T13:27:39.613Z,4.67
2018-12-17T13:30:09.729Z,4.63
2018-12-17T13:32:38.598Z,4.57
2018-12-17T13:35:08.681Z,4.95
2018-12-17T13:37:37.462Z,4.45
2018-12-17T13:42:49.815Z,4.33
2018-12-17T13:45:18.638Z,3.67
2018-12-17T13:47:47.360Z,4.87
2018-12-17T13:50:21.473Z,4.25
2018-12-17T13:52:50.182Z,4.55
2018-12-17T13:55:18.943Z,3.93
2018-12-17T13:57:47.741Z,4.17
2018-12-17T14:00:16.434Z,4.90
2018-12-17T14:02:45.121Z,3.00
2018-12-17T14:05:14.225Z,4.87
2018-12-17T14:07:42.991Z,4.83
2018-12-17T14:10:17.272Z,4.10
2018-12-17T14:12:46.159Z,4.20
2018-12-17T14:15:14.954Z,4.50
2018-12-17T14:17:47.558Z,6.08
2018-12-17T14:22:29.779Z,4.83
2018-12-17T14:24:59.094Z,7.28
2018-12-17T14:27:27.827Z,6.93
2018-12-17T14:29:56.760Z,6.03
2018-12-17T14:32:26.029Z,4.93
2018-12-17T14:34:54.734Z,5.40
2018-12-17T14:37:23.603Z,5.00
2018-12-17T14:39:52.274Z,4.50
2018-12-17T14:42:20.976Z,4.60
2018-12-17T14:44:49.777Z,4.90
2018-12-17T14:47:18.510Z,3.98
2018-12-17T14:49:47.462Z,4.50
2018-12-17T14:52:17.387Z,4.37
2018-12-17T14:54:46.392Z,5.60
2018-12-17T14:57:15.485Z,5.43
2018-12-17T14:59:45.208Z,4.90
2018-12-17T15:02:14.012Z,5.33
2018-12-17T15:04:43.646Z,6.95
2018-12-17T15:07:13.434Z,5.10
2018-12-17T15:09:42.225Z,6.13
2018-12-17T15:12:11.111Z,5.30
2018-12-17T15:14:39.887Z,5.03
2018-12-17T15:17:08.599Z,6.10
2018-12-17T15:19:37.910Z,5.83
2018-12-17T15:22:06.641Z,6.03
2018-12-17T15:24:40.364Z,5.57
2018-12-17T15:27:06.241Z,5.70
2018-12-17T15:29:35.019Z,6.37
2018-12-17T15:32:04.395Z,5.90
2018-12-17T15:34:33.163Z,6.23
2018-12-17T15:37:03.550Z,7.67
2018-12-17T15:39:32.522Z,7.20
2018-12-17T15:42:02.221Z,6.87
2018-12-17T15:44:30.990Z,6.37
2018-12-17T15:46:59.905Z,5.75
2018-12-17T15:49:28.694Z,5.95
2018-12-17T15:51:57.454Z,6.90
2018-12-17T15:54:26.231Z,7.50
2018-12-17T15:56:56.005Z,7.13
2018-12-17T15:59:26.047Z,6.40
2018-12-17T16:01:54.910Z,6.08
2018-12-17T16:04:23.652Z,6.90
2018-12-17T16:06:52.365Z,5.60
2018-12-17T16:09:21.135Z,7.13
2018-12-17T16:11:49.972Z,5.83
2018-12-17T16:14:19.386Z,5.33
2018-12-17T16:16:48.134Z,5.80
2018-12-17T16:19:16.949Z,5.47
2018-12-17T16:21:45.808Z,6.00
2018-12-17T16:24:14.578Z,6.53
2018-12-17T16:26:43.338Z,6.70
2018-12-17T16:29:12.050Z,5.13
2018-12-17T16:31:40.818Z,6.00
2018-12-17T16:34:09.563Z,5.67
2018-12-17T16:36:38.810Z,5.20
2018-12-17T16:39:07.897Z,5.93
2018-12-17T16:41:38.698Z,5.07
2018-12-17T16:44:22.213Z,6.15
2018-12-17T16:49:30.966Z,6.47
2018-12-17T16:51:59.821Z,5.20
2018-12-17T16:54:28.591Z,6.60
2018-12-17T16:56:57.378Z,6.57
2018-12-17T16:59:26.282Z,6.60
2018-12-17T17:01:55.141Z,6.80
2018-12-17T17:04:24.920Z,6.72
2018-12-17T17:06:53.797Z,6.60
2018-12-17T17:09:22.563Z,6.00
2018-12-17T17:11:51.358Z,6.10
2018-12-17T17:14:20.126Z,7.17
2018-12-17T17:16:48.981Z,7.55
2018-12-17T17:19:17.665Z,6.30
2018-12-17T17:21:46.445Z,5.73
2018-12-17T17:24:15.152Z,7.10
2018-12-17T17:26:43.955Z,6.93
2018-12-17T17:29:12.705Z,6.15
2018-12-17T17:31:41.474Z,6.65
2018-12-17T17:34:10.241Z,6.20
2018-12-17T17:36:39.054Z,7.43
2018-12-17T17:39:08.440Z,7.90
2018-12-17T17:41:37.305Z,8.83
2018-12-17T17:44:06.166Z,8.30
2018-12-17T17:46:34.875Z,8.25
2018-12-17T17:49:03.898Z,9.13
2018-12-17T17:51:33.008Z,7.58
2018-12-17T17:54:02.546Z,7.70
2018-12-17T17:56:31.507Z,6.63
2018-12-17T17:59:00.194Z,8.65
2018-12-17T18:01:29.453Z,8.20
2018-12-17T18:03:58.431Z,7.78
2018-12-17T18:06:27.258Z,7.40
2018-12-17T18:08:55.937Z,8.20
2018-12-17T18:11:24.702Z,8.13
2018-12-17T18:13:53.506Z,8.53
2018-12-17T18:16:22.210Z,7.80
2018-12-17T18:18:50.969Z,8.07
2018-12-17T18:21:19.757Z,10.90
2018-12-17T18:23:48.481Z,8.90
2018-12-17T18:26:17.308Z,9.03
2018-12-17T18:28:46.082Z,10.27
2018-12-17T18:31:14.883Z,8.78
2018-12-17T18:33:43.725Z,9.40
2018-12-17T18:36:12.538Z,8.37
2018-12-17T18:38:41.266Z,9.80
2018-12-17T18:41:09.999Z,10.00
2018-12-17T18:43:38.786Z,9.40
2018-12-17T18:46:07.631Z,11.33
2018-12-17T18:48:36.402Z,9.17
2018-12-17T18:51:05.257Z,9.17
2018-12-17T18:53:34.042Z,10.73
2018-12-17T18:56:02.839Z,10.77
2018-12-17T18:58:31.546Z,9.87
2018-12-17T19:01:00.390Z,10.30
2018-12-17T19:03:30.514Z,9.60
2018-12-17T19:05:59.346Z,10.23
2018-12-17T19:13:28.402Z,9.57
2018-12-17T19:15:57.222Z,12.00
2018-12-17T19:18:26.393Z,12.40
2018-12-17T19:20:55.223Z,11.43
2018-12-17T19:23:23.976Z,12.53
2018-12-17T19:25:52.828Z,11.27
2018-12-17T19:28:21.596Z,13.30
2018-12-17T19:30:50.355Z,10.83
2018-12-17T19:33:19.188Z,11.23
2018-12-17T19:35:48.019Z,11.48
2018-12-17T19:38:16.840Z,11.35
2018-12-17T19:40:45.654Z,13.40
2018-12-17T19:43:14.370Z,11.80
2018-12-17T19:45:49.503Z,13.00
2018-12-17T19:48:18.226Z,10.90
2018-12-17T19:50:47.038Z,12.60
2018-12-17T19:53:15.795Z,12.63
2018-12-17T19:55:44.664Z,12.43
2018-12-17T19:58:13.431Z,13.10
2018-12-17T20:00:42.539Z,12.60
2018-12-17T20:03:11.774Z,12.57
2018-12-17T20:05:41.473Z,11.57
2018-12-17T20:08:10.856Z,12.23
2018-12-17T20:10:39.644Z,11.88
2018-12-17T20:13:10.314Z,11.35
2018-12-17T20:15:39.348Z,11.93
2018-12-17T20:18:08.270Z,13.00
2018-12-17T20:20:37.170Z,12.58
2018-12-17T20:23:05.965Z,13.38
2018-12-17T20:25:34.715Z,13.43
2018-12-17T20:28:04.683Z,11.87
2018-12-17T20:30:34.362Z,13.30
2018-12-17T20:33:04.543Z,13.05
2018-12-17T20:35:33.585Z,12.07
2018-12-17T20:38:04.069Z,11.13
2018-12-17T20:40:32.778Z,11.43
2018-12-17T20:43:02.031Z,11.37
2018-12-17T20:45:31.696Z,11.30
2018-12-17T20:48:01.124Z,12.37
2018-12-17T20:50:30.490Z,11.55
2018-12-17T20:53:00.475Z,12.30
2018-12-17T20:55:31.252Z,11.57
2018-12-17T20:58:00.164Z,11.45
2018-12-17T21:00:29.194Z,11.93
2018-12-17T21:03:00.506Z,11.63
2018-12-17T21:05:29.280Z,13.20
2018-12-17T21:07:58.073Z,11.30
2018-12-17T21:10:26.819Z,14.43
2018-12-17T21:12:55.541Z,12.20
2018-12-17T21:15:24.350Z,13.17
2018-12-17T21:17:53.850Z,13.10
2018-12-17T21:20:23.212Z,13.33
2018-12-17T21:22:52.274Z,12.37
2018-12-17T21:25:21.062Z,12.90
2018-12-17T21:27:50.204Z,12.80
2018-12-17T21:30:18.894Z,14.10
2018-12-17T21:32:47.927Z,14.17
2018-12-17T21:35:17.049Z,10.95
2018-12-17T21:37:45.810Z,13.15
2018-12-17T21:40:14.598Z,13.40
2018-12-17T21:42:43.387Z,13.43
2018-12-17T21:45:12.274Z,12.77
2018-12-17T21:47:41.039Z,12.00
2018-12-17T21:50:09.846Z,12.88
2018-12-17T21:52:38.640Z,13.20
2018-12-17T21:55:07.504Z,12.87
2018-12-17T21:57:36.336Z,13.27
2018-12-17T22:00:06.214Z,13.43
2018-12-17T22:02:36.919Z,14.38
2018-12-17T22:05:06.126Z,14.10
2018-12-17T22:07:36.163Z,13.24
2018-12-17T22:10:05.386Z,12.80
2018-12-17T22:12:34.224Z,13.07
2018-12-17T22:15:03.874Z,12.47
2018-12-17T22:17:32.950Z,12.90
2018-12-17T22:20:01.677Z,13.17
2018-12-17T22:22:31.035Z,14.63
2018-12-17T22:25:00.031Z,13.27
2018-12-17T22:27:28.958Z,13.00
2018-12-17T22:29:57.761Z,14.03
2018-12-17T22:32:26.534Z,14.40
2018-12-17T22:34:55.546Z,13.27
2018-12-17T22:37:24.266Z,16.40
2018-12-17T22:39:55.172Z,15.10
2018-12-17T22:42:24.803Z,12.67
2018-12-17T22:44:53.583Z,11.70
2018-12-17T22:47:22.262Z,15.00
2018-12-17T22:49:51.682Z,15.58
2018-12-17T22:52:20.755Z,12.80
2018-12-17T22:54:49.705Z,14.57
2018-12-17T22:57:18.671Z,12.97
2018-12-17T22:59:47.413Z,15.75
2018-12-17T23:02:16.247Z,13.78
2018-12-17T23:04:46.946Z,14.63
2018-12-17T23:07:15.971Z,12.88
2018-12-17T23:09:57.192Z,13.87
2018-12-17T23:12:37.146Z,14.63
2018-12-17T23:15:17.315Z,14.00
2018-12-17T23:17:45.146Z,13.10
2018-12-17T23:20:15.976Z,13.33
2018-12-17T23:22:46.804Z,14.40
2018-12-17T23:25:17.509Z,12.63
2018-12-17T23:27:49.678Z,13.27
2018-12-17T23:30:18.557Z,12.93
2018-12-17T23:32:47.386Z,13.40
2018-12-17T23:35:16.165Z,13.87
2018-12-17T23:37:44.943Z,13.80
2018-12-17T23:40:13.719Z,14.34
2018-12-17T23:42:42.431Z,13.87
2018-12-17T23:45:11.270Z,14.17
2018-12-17T23:47:40.010Z,15.20
2018-12-17T23:50:09.752Z,14.92
2018-12-17T23:52:38.498Z,14.27
2018-12-17T23:55:08.145Z,15.00
2018-12-17T23:57:36.949Z,14.50
